Hood Army Air Field
KHLR : now visible

Airfield :











YOU CAN JOIN US ON...

 
LOGIN :

Register | Disclaimer

   EN    FR    IT 

 









Legend :    VFR   Marginal VFR   IFR   Intensive IFR   Very Intensive IFR
Visi :
Ceiling :
>= 8 km
>= 3000ft
5 to 8 km
1000 to 3000 ft
1500m to 5 km
500 to 1000 ft
800 to 1500m
200 to 500 ft
< 800m
< 200 ft
Symbols :   Thunderstorms  Fog  Heavy snow  Heavy precipitations  Wind > 20 kt






- Airport Elevation : 924 ft


KHLR - Hood Army Air Field

CURRENT METAR :
  • 190709Z AUTO 14007KT 8SM FEW005 SCT017 15/14 A3001 RMK AO2 SLP156

EXPIRED METARs :
  • 190658Z AUTO 16005KT 9SM SCT009 BKN016 BKN026 15/15 A3001 RMK AO2 RAE22RAB23E52 BKN016 V OVC SLP156 P0000 T01540146
  • 190652Z AUTO 14007KT 9SM SCT009 OVC016 16/15 A3001 RMK AO2 RAE22RAB23E52 CIG 010V017 SLP156
  • 190633Z AUTO 13007KT 8SM -RA OVC013 16/14 A3001 RMK AO2 RAE22RAB23 SLP156
  • 190628Z AUTO 13007KT 8SM -RA OVC015 16/14 A3001 RMK AO2 RAE22RAB23 SLP156
  • 190558Z AUTO 07004KT 7SM -RA OVC013 16/14 A3002 RMK AO2 RAB46 SLP160 P0000 60000 T01570137 10189 20145 402250025 52020
  • 190546Z AUTO 08004KT 8SM -RA OVC014 16/14 A3001 RMK AO2 RAB46 SLP157 52021
  • 190533Z AUTO 10004KT 9SM OVC014 16/13 A3001 RMK AO2 SLP157 52021
  • 190458Z AUTO 13005KT 10SM OVC015 16/13 A3000 RMK AO2 SLP154 T01590129

TAF N/A
KZHU FIR / North America



MET'MAP, your aeronautical weather chart ! - Copyright ORBIFLY December 2007 - Disclaimer

ORBIFLY MET'MAP TEAM :

Programming & Development : Alexandra Zaïnal
Concept & original design : Baudouin d'Aumeries
Assistance for programming : Marc-Olivier Méhu
Technical & hardware support : Manuel Goepfert

Contact : metmap@orbifly.com




SOURCES & CREDITS :

   NOAA       Earth
Advisory